createdAt,value
2018-09-26T00:00:18.764Z,24.8
2018-09-26T00:01:09.365Z,24.8
2018-09-26T00:01:58.868Z,24.8
2018-09-26T00:02:48.905Z,24.9
2018-09-26T00:03:39.000Z,24.8
2018-09-26T00:04:28.764Z,24.8
2018-09-26T00:05:18.837Z,24.8
2018-09-26T00:06:09.462Z,24.8
2018-09-26T00:06:59.232Z,24.8
2018-09-26T00:07:49.842Z,24.8
2018-09-26T00:08:39.082Z,24.8
2018-09-26T00:09:29.702Z,24.8
2018-09-26T00:10:19.442Z,24.8
2018-09-26T00:11:09.264Z,24.8
2018-09-26T00:11:59.664Z,24.8
2018-09-26T00:12:49.370Z,24.8
2018-09-26T00:13:39.445Z,24.8
2018-09-26T00:14:30.042Z,24.8
2018-09-26T00:15:20.424Z,24.8
2018-09-26T00:16:09.937Z,24.8
2018-09-26T00:16:59.656Z,24.8
2018-09-26T00:17:50.022Z,24.8
2018-09-26T00:18:39.897Z,24.8
2018-09-26T00:19:30.426Z,24.8
2018-09-26T00:20:19.639Z,24.8
2018-09-26T00:21:10.604Z,24.8
2018-09-26T00:22:00.049Z,24.8
2018-09-26T00:22:50.432Z,24.8
2018-09-26T00:23:40.397Z,24.8
2018-09-26T00:24:30.246Z,24.8
2018-09-26T00:25:21.169Z,24.8
2018-09-26T00:26:10.423Z,24.8
2018-09-26T00:27:01.236Z,24.8
2018-09-26T00:27:50.754Z,24.8
2018-09-26T00:28:41.406Z,24.8
2018-09-26T00:29:31.141Z,24.8
2018-09-26T00:30:21.243Z,24.8
2018-09-26T00:31:11.041Z,24.8
2018-09-26T00:32:01.354Z,24.8
2018-09-26T00:32:50.849Z,24.8
2018-09-26T00:33:41.488Z,24.8
2018-09-26T00:34:31.556Z,24.7
2018-09-26T00:35:21.341Z,24.8
2018-09-26T00:36:12.511Z,24.8
2018-09-26T00:55:24.985Z,24.6
2018-09-26T00:56:15.207Z,24.7
2018-09-26T00:57:04.767Z,24.7
2018-09-26T00:57:55.124Z,24.7
2018-09-26T00:58:44.304Z,24.7
2018-09-26T00:59:34.960Z,24.6
2018-09-26T01:00:26.295Z,24.6
2018-09-26T01:01:15.576Z,24.7
2018-09-26T01:02:05.140Z,24.7
2018-09-26T01:02:55.494Z,24.6
2018-09-26T01:03:45.809Z,24.7
2018-09-26T01:04:35.840Z,24.7
2018-09-26T01:05:26.247Z,24.6
2018-09-26T01:06:15.707Z,24.6
2018-09-26T01:07:05.487Z,24.6
2018-09-26T01:07:56.112Z,24.7
2018-09-26T01:08:45.909Z,24.6
2018-09-26T01:09:36.244Z,24.6
2018-09-26T01:10:25.976Z,24.6
2018-09-26T01:11:16.118Z,24.6
2018-09-26T01:12:05.947Z,24.6
2018-09-26T01:12:56.248Z,24.6
2018-09-26T01:13:46.519Z,24.6
2018-09-26T01:14:36.306Z,24.6
2018-09-26T01:15:26.651Z,24.6
2018-09-26T01:16:17.098Z,24.6
2018-09-26T01:17:06.798Z,24.6
2018-09-26T01:17:56.283Z,24.6
2018-09-26T01:18:46.636Z,24.6
2018-09-26T01:19:36.984Z,24.6
2018-09-26T01:20:26.766Z,24.6
2018-09-26T01:21:15.913Z,24.6
2018-09-26T01:22:07.183Z,24.6
2018-09-26T01:22:57.201Z,24.6
2018-09-26T01:23:47.267Z,24.6
2018-09-26T01:24:37.325Z,24.6
2018-09-26T01:25:27.432Z,24.6
2018-09-26T01:26:17.512Z,24.6
2018-09-26T01:27:07.496Z,24.6
2018-09-26T01:27:57.578Z,24.6
2018-09-26T01:28:47.353Z,24.6
2018-09-26T01:29:37.703Z,24.6
2018-09-26T01:30:27.235Z,24.6
2018-09-26T01:31:17.820Z,24.6
2018-09-26T01:32:07.865Z,24.6
2018-09-26T01:32:57.401Z,24.6
2018-09-26T01:33:47.720Z,24.6
2018-09-26T01:34:37.505Z,24.6
2018-09-26T01:35:27.853Z,24.6
2018-09-26T01:36:18.242Z,24.6
2018-09-26T01:37:08.305Z,24.6
2018-09-26T01:37:58.045Z,24.6
2018-09-26T01:38:48.117Z,24.6
2018-09-26T01:39:38.180Z,24.6
2018-09-26T01:40:27.972Z,24.6
2018-09-26T01:41:17.882Z,24.6
2018-09-26T01:42:08.605Z,24.6
2018-09-26T01:42:58.715Z,24.5
2018-09-26T01:43:48.754Z,24.6
2018-09-26T01:44:38.285Z,24.6
2018-09-26T01:45:28.025Z,24.6
2018-09-26T01:46:18.368Z,24.5
2018-09-26T01:47:08.681Z,24.5
2018-09-26T01:47:58.274Z,24.5
2018-09-26T01:48:48.859Z,24.5
2018-09-26T01:49:38.909Z,24.5
2018-09-26T01:50:28.969Z,24.6
2018-09-26T01:51:19.025Z,24.5
2018-09-26T01:52:08.966Z,24.5
2018-09-26T01:52:59.428Z,24.5
2018-09-26T01:53:49.318Z,24.5
2018-09-26T01:54:39.269Z,24.5
2018-09-26T01:55:29.639Z,24.5
2018-09-26T01:56:18.844Z,24.5
2018-09-26T01:57:09.249Z,24.5
2018-09-26T01:57:59.877Z,24.5
2018-09-26T01:58:49.589Z,24.5
2018-09-26T01:59:39.651Z,24.5
2018-09-26T02:00:29.711Z,24.5
2018-09-26T02:01:20.061Z,24.5
2018-09-26T02:02:09.549Z,24.5
2018-09-26T02:03:00.170Z,24.5
2018-09-26T02:03:49.968Z,24.5
2018-09-26T02:04:39.456Z,24.5
2018-09-26T02:05:30.398Z,24.5
2018-09-26T02:06:20.139Z,24.5
2018-09-26T02:07:10.457Z,24.5
2018-09-26T02:08:00.546Z,24.5
2018-09-26T02:08:50.336Z,24.5
2018-09-26T02:09:40.388Z,24.5
2018-09-26T02:10:30.462Z,24.4
2018-09-26T02:11:19.380Z,24.5
2018-09-26T02:12:10.859Z,24.5
2018-09-26T02:13:00.340Z,24.5
2018-09-26T02:13:51.201Z,24.4
2018-09-26T02:14:41.034Z,24.4
2018-09-26T02:15:31.120Z,24.4
2018-09-26T02:16:21.120Z,24.4
2018-09-26T02:17:10.955Z,24.4
2018-09-26T02:18:01.068Z,24.4
2018-09-26T02:18:51.111Z,24.4
2018-09-26T02:19:41.145Z,24.4
2018-09-26T02:20:30.927Z,24.4
2018-09-26T02:21:21.252Z,24.4
2018-09-26T02:22:11.592Z,24.4
2018-09-26T02:23:00.832Z,24.4
2018-09-26T02:23:52.018Z,24.4
2018-09-26T02:24:41.797Z,24.4
2018-09-26T02:25:31.542Z,24.4
2018-09-26T02:26:21.912Z,24.4
2018-09-26T02:27:11.976Z,24.4
2018-09-26T02:28:02.045Z,24.4
2018-09-26T02:28:52.427Z,24.4
2018-09-26T02:29:42.137Z,24.4
2018-09-26T02:30:31.678Z,24.4
2018-09-26T02:31:21.729Z,24.4
2018-09-26T02:32:11.484Z,24.4
2018-09-26T02:33:02.474Z,24.4
2018-09-26T02:33:52.231Z,24.4
2018-09-26T02:34:42.252Z,24.4
2018-09-26T02:35:32.591Z,24.4
2018-09-26T02:36:22.053Z,24.4
2018-09-26T02:37:12.697Z,24.4
2018-09-26T02:38:02.484Z,24.4
2018-09-26T02:38:52.801Z,24.4
2018-09-26T02:39:42.931Z,24.4
2018-09-26T02:40:32.661Z,24.4
2018-09-26T02:41:22.774Z,24.4
2018-09-26T02:42:12.479Z,24.4
2018-09-26T02:43:01.991Z,24.4
2018-09-26T02:43:53.246Z,24.4
2018-09-26T02:44:43.509Z,24.4
2018-09-26T02:45:33.351Z,24.4
2018-09-26T02:46:23.392Z,24.4
2018-09-26T02:47:12.878Z,24.4
2018-09-26T02:48:03.493Z,24.4
2018-09-26T02:48:53.611Z,24.4
2018-09-26T02:49:43.415Z,24.4
2018-09-26T02:50:33.691Z,24.4
2018-09-26T02:51:23.745Z,24.4
2018-09-26T02:52:13.513Z,24.4
2018-09-26T02:53:03.873Z,24.4
2018-09-26T02:53:53.920Z,24.4
2018-09-26T02:54:43.723Z,24.4
2018-09-26T02:55:33.621Z,24.4
2018-09-26T02:56:24.118Z,24.4
2018-09-26T02:57:14.195Z,24.3
2018-09-26T02:58:03.762Z,24.4
2018-09-26T02:58:53.464Z,24.4
2018-09-26T02:59:44.408Z,24.4
2018-09-26T03:00:34.189Z,24.3
2018-09-26T03:01:23.633Z,24.3
2018-09-26T03:02:14.543Z,24.3
2018-09-26T03:03:04.045Z,24.3
2018-09-26T03:03:55.573Z,24.3
2018-09-26T03:04:44.742Z,24.3
2018-09-26T03:05:34.810Z,24.3
2018-09-26T03:06:24.314Z,24.4
2018-09-26T03:07:14.067Z,24.3
2018-09-26T03:08:04.424Z,24.3
2018-09-26T03:08:54.782Z,24.3
2018-09-26T03:09:45.072Z,24.3
2018-09-26T03:10:34.656Z,24.3
2018-09-26T03:11:24.957Z,24.3
2018-09-26T03:12:14.715Z,24.3
2018-09-26T03:13:05.073Z,24.3
2018-09-26T03:13:55.662Z,24.3
2018-09-26T03:14:45.466Z,24.3
2018-09-26T03:15:35.583Z,24.3
2018-09-26T03:16:25.039Z,24.3
2018-09-26T03:17:14.821Z,24.3
2018-09-26T03:18:05.149Z,24.3
2018-09-26T03:18:55.756Z,24.3
2018-09-26T03:19:45.617Z,24.3
2018-09-26T03:20:35.609Z,24.3
2018-09-26T03:21:25.662Z,24.3
2018-09-26T03:22:16.025Z,24.3
2018-09-26T03:23:05.497Z,24.3
2018-09-26T03:23:55.878Z,24.3
2018-09-26T03:24:46.330Z,24.3
2018-09-26T03:25:36.841Z,24.3
2018-09-26T03:26:26.048Z,24.3
2018-09-26T03:27:16.397Z,24.3
2018-09-26T03:28:06.461Z,24.3
2018-09-26T03:28:55.953Z,24.3
2018-09-26T03:29:46.316Z,24.3
2018-09-26T03:30:36.113Z,24.3
2018-09-26T03:31:26.150Z,24.3
2018-09-26T03:32:16.283Z,24.3
2018-09-26T03:33:06.268Z,24.3
2018-09-26T03:33:56.332Z,24.3
2018-09-26T03:34:46.368Z,24.3
2018-09-26T03:35:36.963Z,24.3
2018-09-26T03:36:27.292Z,24.3
2018-09-26T03:37:17.138Z,24.3
2018-09-26T03:38:06.935Z,24.3
2018-09-26T03:38:56.968Z,24.3
2018-09-26T03:39:46.747Z,24.3
2018-09-26T03:40:37.387Z,24.3
2018-09-26T03:41:27.422Z,24.3
2018-09-26T03:42:16.956Z,24.3
2018-09-26T03:43:06.989Z,24.3
2018-09-26T03:43:57.630Z,24.3
2018-09-26T03:44:47.112Z,24.2
2018-09-26T03:45:37.457Z,24.3
2018-09-26T03:46:27.831Z,24.3
2018-09-26T03:47:17.905Z,24.3
2018-09-26T03:48:07.932Z,24.3
2018-09-26T03:48:57.679Z,24.2
2018-09-26T03:49:47.784Z,24.3
2018-09-26T03:50:38.380Z,24.2
2018-09-26T03:51:28.137Z,24.3
2018-09-26T03:52:17.951Z,24.3
2018-09-26T03:53:08.014Z,24.2
2018-09-26T03:53:58.069Z,24.3
2018-09-26T03:54:48.123Z,24.3
2018-09-26T03:55:38.417Z,24.3
2018-09-26T03:56:28.616Z,24.3
2018-09-26T03:57:18.622Z,24.3
2018-09-26T03:58:08.661Z,24.3
2018-09-26T03:58:58.456Z,24.3
2018-09-26T03:59:48.467Z,24.3
2018-09-26T04:00:37.980Z,24.3
2018-09-26T04:01:28.861Z,24.2
2018-09-26T04:02:19.005Z,24.2
2018-09-26T04:03:08.763Z,24.3
2018-09-26T04:03:59.141Z,24.2
2018-09-26T04:04:49.135Z,24.2
2018-09-26T04:05:38.960Z,24.2
2018-09-26T04:06:29.271Z,24.2
2018-09-26T04:07:18.784Z,24.2
2018-09-26T04:08:08.821Z,24.2
2018-09-26T04:08:59.239Z,24.2
2018-09-26T04:09:49.518Z,24.2
2018-09-26T04:10:39.008Z,24.2
2018-09-26T04:11:29.639Z,24.2
2018-09-26T04:12:19.438Z,24.2
2018-09-26T04:13:09.579Z,24.2
2018-09-26T04:13:59.820Z,24.2
2018-09-26T04:14:49.909Z,24.2
2018-09-26T04:15:40.573Z,24.2
2018-09-26T04:16:29.724Z,24.2
2018-09-26T04:17:19.525Z,24.3
2018-09-26T04:18:10.141Z,24.2
2018-09-26T04:18:59.905Z,24.2
2018-09-26T04:19:50.261Z,24.2
2018-09-26T04:20:40.340Z,24.2
2018-09-26T04:21:29.809Z,24.2
2018-09-26T04:22:20.439Z,24.2
2018-09-26T04:23:10.199Z,24.2
2018-09-26T04:24:00.598Z,24.2
2018-09-26T04:24:50.337Z,24.2
2018-09-26T04:25:40.664Z,24.2
2018-09-26T04:26:32.282Z,24.2
2018-09-26T04:27:21.256Z,24.3
2018-09-26T04:28:10.334Z,24.2
2018-09-26T04:29:00.680Z,24.3
2018-09-26T04:29:51.119Z,24.2
2018-09-26T04:30:40.992Z,24.3
2018-09-26T04:31:31.076Z,24.2
2018-09-26T04:32:20.885Z,24.2
2018-09-26T04:33:13.054Z,24.3
2018-09-26T04:34:01.804Z,24.2
2018-09-26T04:34:51.364Z,24.2
2018-09-26T04:35:41.410Z,24.2
2018-09-26T04:36:31.744Z,24.2
2018-09-26T04:37:21.546Z,24.2
2018-09-26T04:38:11.053Z,24.2
2018-09-26T04:39:01.464Z,24.2
2018-09-26T04:39:51.694Z,24.2
2018-09-26T04:40:41.206Z,24.2
2018-09-26T04:41:32.121Z,24.2
2018-09-26T04:42:21.891Z,24.2
2018-09-26T04:43:12.262Z,24.2
2018-09-26T04:44:01.472Z,24.2
2018-09-26T04:44:51.843Z,24.2
2018-09-26T04:45:41.853Z,24.2
2018-09-26T04:46:32.243Z,24.2
2018-09-26T04:47:22.003Z,24.2
2018-09-26T04:48:12.313Z,24.2
2018-09-26T04:49:02.139Z,24.2
2018-09-26T04:49:52.467Z,24.2
2018-09-26T04:50:42.455Z,24.2
2018-09-26T04:51:32.558Z,24.2
2018-09-26T04:52:22.078Z,24.2
2018-09-26T04:53:12.920Z,24.2
2018-09-26T04:54:02.835Z,24.2
2018-09-26T04:54:52.538Z,24.2
2018-09-26T04:55:42.863Z,24.2
2018-09-26T04:56:32.688Z,24.2
2018-09-26T04:57:23.240Z,24.2
2018-09-26T04:58:13.434Z,24.2
2018-09-26T04:59:02.888Z,24.2
2018-09-26T04:59:52.333Z,24.2
2018-09-26T05:00:43.270Z,24.2
2018-09-26T05:01:33.021Z,24.2
2018-09-26T05:02:23.092Z,24.2
2018-09-26T05:03:13.123Z,24.2
2018-09-26T05:04:03.200Z,24.2
2018-09-26T05:04:53.052Z,24.2
2018-09-26T05:05:43.382Z,24.2
2018-09-26T05:06:33.090Z,24.2
2018-09-26T05:07:23.443Z,24.2
2018-09-26T05:24:15.616Z,24.2
2018-09-26T05:25:05.549Z,24.1
2018-09-26T05:25:55.391Z,24.2
2018-09-26T05:26:45.414Z,24.1
2018-09-26T05:27:35.160Z,24.2
2018-09-26T05:28:25.529Z,24.1
2018-09-26T05:29:15.894Z,24.1
2018-09-26T05:30:05.066Z,24.2
2018-09-26T05:30:55.417Z,24.1
2018-09-26T05:31:45.761Z,24.2
2018-09-26T05:32:35.826Z,24.1
2018-09-26T05:33:26.147Z,24.1
2018-09-26T05:34:15.680Z,24.2
2018-09-26T05:35:06.288Z,24.1
2018-09-26T05:35:56.020Z,24.1
2018-09-26T05:36:46.445Z,24.1
2018-09-26T05:37:36.483Z,24.1
2018-09-26T05:38:26.263Z,24.2
2018-09-26T05:39:16.286Z,24.2
2018-09-26T05:40:06.368Z,24.1
2018-09-26T05:40:56.108Z,24.1
2018-09-26T05:41:46.899Z,24.2
2018-09-26T05:42:36.528Z,24.1
2018-09-26T05:43:26.882Z,24.1
2018-09-26T05:44:16.111Z,24.1
2018-09-26T05:45:06.782Z,24.1
2018-09-26T05:45:57.148Z,24.2
2018-09-26T05:46:47.213Z,24.1
2018-09-26T05:47:37.211Z,24.1
2018-09-26T05:48:26.719Z,24.1
2018-09-26T05:49:17.315Z,24.1
2018-09-26T05:50:06.936Z,24.1
2018-09-26T05:50:57.530Z,24.1
2018-09-26T05:51:46.972Z,24.1
2018-09-26T05:52:37.557Z,24.1
2018-09-26T05:53:27.742Z,24.1
2018-09-26T05:54:17.400Z,24.1
2018-09-26T05:55:07.499Z,24.1
2018-09-26T05:55:57.752Z,24.1
2018-09-26T05:56:47.857Z,24.1
2018-09-26T05:57:37.632Z,24.1
2018-09-26T05:58:27.455Z,24.1
2018-09-26T05:59:18.435Z,24.1
2018-09-26T06:00:07.939Z,24.1
2018-09-26T06:00:58.895Z,24.1
2018-09-26T06:01:48.714Z,24.1
2018-09-26T06:02:38.341Z,24.1
2018-09-26T06:03:27.791Z,24.1
2018-09-26T06:04:18.112Z,24.1
2018-09-26T06:05:08.246Z,24.1
2018-09-26T06:05:58.524Z,24.1
2018-09-26T06:06:48.092Z,24.1
2018-09-26T06:07:38.103Z,24.1
2018-09-26T06:08:27.946Z,24.1
2018-09-26T06:09:18.778Z,24.1
2018-09-26T06:10:08.556Z,24.1
2018-09-26T06:10:58.316Z,24.1
2018-09-26T06:11:48.975Z,24.1
2018-09-26T06:12:39.068Z,24.1
2018-09-26T06:13:28.926Z,24.1
2018-09-26T06:14:19.309Z,24.1
2018-09-26T06:15:09.506Z,24.1
2018-09-26T06:15:59.703Z,24.1
2018-09-26T06:16:49.644Z,24.1
2018-09-26T06:17:39.187Z,24.1
2018-09-26T06:18:29.456Z,24.1
2018-09-26T06:19:18.933Z,24.1
2018-09-26T06:20:09.028Z,24.1
2018-09-26T06:20:58.478Z,24.1
2018-09-26T06:21:49.703Z,24.1
2018-09-26T06:22:39.497Z,24.1
2018-09-26T06:23:29.524Z,24.1
2018-09-26T06:24:19.912Z,24.1
2018-09-26T06:25:09.668Z,24.1
2018-09-26T06:25:59.520Z,24.1
2018-09-26T06:26:49.276Z,24.1
2018-09-26T06:27:40.125Z,24.1
2018-09-26T06:28:29.360Z,24.1
2018-09-26T06:29:20.242Z,24.1
2018-09-26T06:30:10.135Z,24.1
2018-09-26T06:31:00.095Z,24.1
2018-09-26T06:31:50.207Z,24.1
2018-09-26T06:32:40.477Z,24.1
2018-09-26T06:33:30.535Z,24.1
2018-09-26T06:34:20.644Z,24.1
2018-09-26T06:35:10.577Z,24.1
2018-09-26T06:36:00.747Z,24.1
2018-09-26T06:36:50.539Z,24.1
2018-09-26T06:37:40.326Z,24.1
2018-09-26T06:38:30.642Z,24.1
2018-09-26T06:39:21.018Z,24.1
2018-09-26T06:40:10.770Z,24.1
2018-09-26T06:41:00.535Z,24.1
2018-09-26T06:41:50.943Z,24.1
2018-09-26T06:42:40.966Z,24.1
2018-09-26T06:43:30.774Z,24.1
2018-09-26T06:44:21.341Z,24.1
2018-09-26T06:45:11.399Z,24.1
2018-09-26T06:46:01.192Z,24.1
2018-09-26T06:46:51.529Z,24.1
2018-09-26T06:47:41.711Z,24.1
2018-09-26T06:48:31.108Z,24.1
2018-09-26T06:49:21.683Z,24.1
2018-09-26T06:50:11.531Z,24.1
2018-09-26T06:51:01.568Z,24.1
2018-09-26T06:51:51.358Z,24.1
2018-09-26T06:52:42.013Z,24.1
2018-09-26T06:53:32.048Z,24.1
2018-09-26T06:54:21.807Z,24.1
2018-09-26T06:55:12.116Z,24.1
2018-09-26T06:56:01.915Z,24.1
2018-09-26T06:56:52.035Z,24.1
2018-09-26T06:57:42.147Z,24.1
2018-09-26T06:58:32.078Z,23.2
2018-09-26T06:59:22.461Z,26.4
2018-09-26T07:00:12.773Z,47.2
2018-09-26T07:01:02.557Z,54.2
2018-09-26T07:01:52.354Z,54.1
2018-09-26T07:02:42.196Z,53.8
2018-09-26T07:03:32.771Z,53.1
2018-09-26T07:04:23.059Z,52.3
2018-09-26T07:05:12.644Z,51.5
2018-09-26T07:06:02.658Z,50.8
2018-09-26T07:06:53.059Z,50.1
2018-09-26T07:07:42.762Z,49.5
2018-09-26T07:08:32.570Z,48.9
2018-09-26T07:09:22.893Z,48.3
2018-09-26T07:10:13.215Z,47.8
2018-09-26T07:11:03.307Z,47.2
2018-09-26T07:11:52.803Z,46.6
2018-09-26T07:12:43.681Z,46.1
2018-09-26T07:13:33.257Z,45.6
2018-09-26T07:14:22.993Z,45.1
2018-09-26T07:15:13.644Z,44.6
2018-09-26T07:16:03.658Z,44.1
2018-09-26T07:16:53.490Z,43.6
2018-09-26T07:17:44.365Z,43.1
2018-09-26T07:18:33.865Z,42.7
2018-09-26T07:19:23.344Z,42.3
2018-09-26T07:20:13.695Z,41.9
2018-09-26T07:21:04.087Z,41.5
2018-09-26T07:21:53.566Z,41.1
2018-09-26T07:22:44.477Z,40.8
2018-09-26T07:23:34.001Z,41.3
2018-09-26T07:24:23.696Z,44
2018-09-26T07:25:14.327Z,54.2
2018-09-26T07:26:04.147Z,59.1
2018-09-26T07:26:54.202Z,57.2
2018-09-26T07:27:44.532Z,55.6
2018-09-26T07:28:34.365Z,54.7
2018-09-26T07:29:24.065Z,54.1
2018-09-26T07:30:14.681Z,53.6
2018-09-26T07:31:04.754Z,52.9
2018-09-26T07:31:54.577Z,52.2
2018-09-26T07:32:44.682Z,51.5
2018-09-26T07:33:34.931Z,50.8
2018-09-26T07:34:24.984Z,50.2
2018-09-26T07:35:15.086Z,49.6
2018-09-26T07:36:04.594Z,49
2018-09-26T07:36:55.188Z,48.4
2018-09-26T07:37:44.972Z,47.9
2018-09-26T07:38:34.778Z,47.3
2018-09-26T07:39:25.101Z,46.8
2018-09-26T07:40:15.496Z,48
2018-09-26T07:41:04.947Z,51.5
2018-09-26T07:41:55.587Z,60
2018-09-26T07:42:44.509Z,61.4
2018-09-26T07:43:35.436Z,60.6
2018-09-26T07:44:25.335Z,58.8
2018-09-26T07:45:15.135Z,56.8
2018-09-26T07:46:04.486Z,55.3
2018-09-26T07:46:55.433Z,55.4
2018-09-26T07:47:45.713Z,56.9
2018-09-26T07:48:35.364Z,58.4
2018-09-26T07:49:25.601Z,59.1
2018-09-26T07:50:15.057Z,59.1
2018-09-26T07:51:05.535Z,58.8
2018-09-26T07:51:55.558Z,58.4
2018-09-26T07:52:45.300Z,58.1
2018-09-26T07:53:35.381Z,57.7
2018-09-26T07:54:25.808Z,57.3
2018-09-26T07:55:16.128Z,57.5
2018-09-26T07:56:05.559Z,58.1
2018-09-26T07:56:55.552Z,58.8
2018-09-26T07:57:46.488Z,59.2
2018-09-26T07:58:36.033Z,59.4
2018-09-26T07:59:26.675Z,59.6
2018-09-26T08:00:16.146Z,59.4
2018-09-26T08:01:06.736Z,59.4
2018-09-26T08:01:56.494Z,59.6
2018-09-26T08:02:46.608Z,59.9
2018-09-26T08:03:36.896Z,60.2
2018-09-26T08:04:27.553Z,60.5
2018-09-26T08:05:16.982Z,60.7
2018-09-26T08:06:07.788Z,60.8
2018-09-26T08:06:56.574Z,60.9
2018-09-26T08:07:46.734Z,60.9
2018-09-26T08:08:36.532Z,61.1
2018-09-26T08:09:26.277Z,61.3
2018-09-26T08:10:16.889Z,61.4
2018-09-26T08:11:07.259Z,61.6
2018-09-26T08:11:57.969Z,61.8
2018-09-26T08:12:47.562Z,61.9
2018-09-26T08:13:37.887Z,62.1
2018-09-26T08:14:27.952Z,62.2
2018-09-26T08:15:17.239Z,62.4
2018-09-26T08:16:07.260Z,62.6
2018-09-26T08:16:58.137Z,62.8
2018-09-26T08:17:47.908Z,62.8
2018-09-26T08:18:38.681Z,62.9
2018-09-26T08:19:28.130Z,63.1
2018-09-26T08:20:18.402Z,63.2
2018-09-26T08:21:07.919Z,63.3
2018-09-26T08:21:58.294Z,63.5
2018-09-26T08:22:48.608Z,63.6
2018-09-26T08:23:38.543Z,63.8
2018-09-26T08:24:28.444Z,63.9
2018-09-26T08:25:18.171Z,63.9
2018-09-26T08:26:08.281Z,64.1
2018-09-26T08:26:58.904Z,64.3
2018-09-26T08:27:48.676Z,64.5
2018-09-26T08:28:38.438Z,64.7
2018-09-26T08:29:28.851Z,64.9
2018-09-26T08:30:18.901Z,65.1
2018-09-26T08:31:08.685Z,65.3
2018-09-26T08:31:58.975Z,65.6
2018-09-26T08:32:49.040Z,65.9
2018-09-26T08:33:39.117Z,66.1
2018-09-26T08:34:28.895Z,66.3
2018-09-26T08:35:19.506Z,66.4
2018-09-26T08:36:09.338Z,66.6
2018-09-26T08:36:59.607Z,66.3
2018-09-26T08:37:49.188Z,64.8
2018-09-26T08:38:39.473Z,63.3
2018-09-26T08:39:29.852Z,61.8
2018-09-26T08:40:19.892Z,60.6
2018-09-26T08:41:10.202Z,59.8
2018-09-26T08:41:59.454Z,59.2
2018-09-26T08:43:39.843Z,57.9
2018-09-26T08:44:29.951Z,57.1
2018-09-26T08:45:20.229Z,56.1
2018-09-26T08:46:10.479Z,55.3
2018-09-26T08:47:00.337Z,54.6
2018-09-26T08:47:49.867Z,53.8
2018-09-26T08:48:40.496Z,53.1
2018-09-26T08:50:20.411Z,51.7
2018-09-26T08:51:10.729Z,51.1
2018-09-26T08:52:00.725Z,50.5
2018-09-26T08:52:50.561Z,49.9
2018-09-26T08:53:41.171Z,49.4
2018-09-26T08:54:30.986Z,48.8
2018-09-26T08:55:20.944Z,48.3
2018-09-26T08:56:11.123Z,47.8
2018-09-26T08:57:00.840Z,47.3
2018-09-26T08:57:50.600Z,46.9
2018-09-26T08:58:40.906Z,46.4
2018-09-26T08:59:31.317Z,45.9
2018-09-26T09:00:20.908Z,45.5
2018-09-26T09:01:10.593Z,45.1
2018-09-26T09:02:01.170Z,44.7
2018-09-26T09:02:51.270Z,44.3
2018-09-26T09:03:41.568Z,43.9
2018-09-26T09:04:31.615Z,43.5
2018-09-26T09:05:21.665Z,43.1
2018-09-26T09:06:12.208Z,42.8
2018-09-26T09:07:01.561Z,42.4
2018-09-26T09:07:51.892Z,42.1
2018-09-26T09:08:41.376Z,41.7
2018-09-26T09:09:32.098Z,41.4
2018-09-26T09:10:22.063Z,41.1
2018-09-26T09:11:11.880Z,40.8
2018-09-26T09:12:01.361Z,40.4
2018-09-26T09:12:52.000Z,40.2
2018-09-26T09:13:42.299Z,40.5
2018-09-26T09:14:33.873Z,44
2018-09-26T09:15:22.470Z,55.8
2018-09-26T09:16:11.956Z,63.9
2018-09-26T09:17:01.820Z,65
2018-09-26T09:17:52.434Z,63.8
2018-09-26T09:18:42.215Z,60.2
2018-09-26T09:19:32.600Z,58
2018-09-26T09:20:23.540Z,57.3
2018-09-26T09:21:12.574Z,58.9
2018-09-26T09:22:02.348Z,61.3
2018-09-26T09:38:50.394Z,65.7
2018-09-26T09:39:40.111Z,63.7
2018-09-26T09:40:30.119Z,62.3
2018-09-26T09:41:20.174Z,62.4
2018-09-26T09:42:09.889Z,63.5
2018-09-26T09:43:00.524Z,64.8
2018-09-26T09:43:50.836Z,65.9
2018-09-26T09:44:40.751Z,66.5
2018-09-26T09:45:30.458Z,66.6
2018-09-26T09:46:20.561Z,66.3
2018-09-26T09:47:10.108Z,66.2
2018-09-26T09:48:01.223Z,66.4
2018-09-26T09:48:50.979Z,66.9
2018-09-26T09:49:40.771Z,67.4
2018-09-26T09:50:30.848Z,67.9
2018-09-26T09:51:21.185Z,68.2
2018-09-26T09:52:10.953Z,68.3
2018-09-26T09:53:01.277Z,68.3
2018-09-26T09:53:51.103Z,68.4
2018-09-26T09:54:40.859Z,68.5
2018-09-26T09:55:31.220Z,68.7
2018-09-26T09:56:21.811Z,68.9
2018-09-26T09:57:11.311Z,69.2
2018-09-26T09:58:01.414Z,69.3
2018-09-26T09:58:51.708Z,69.5
2018-09-26T09:59:41.499Z,69.6
2018-09-26T10:00:31.015Z,69.7
2018-09-26T10:01:21.980Z,69.8
2018-09-26T10:02:12.245Z,69.9
2018-09-26T10:03:02.619Z,70.1
2018-09-26T10:03:52.506Z,70.3
2018-09-26T10:04:42.156Z,70.4
2018-09-26T10:05:31.671Z,69.8
2018-09-26T10:06:22.020Z,67.8
2018-09-26T10:07:12.340Z,65.8
2018-09-26T10:08:02.120Z,64.4
2018-09-26T10:08:52.022Z,63.6
2018-09-26T10:09:42.259Z,62.4
2018-09-26T10:10:32.007Z,61.4
2018-09-26T10:11:22.377Z,61.6
2018-09-26T10:12:12.712Z,64.2
2018-09-26T10:13:02.511Z,68.5
2018-09-26T10:13:52.292Z,69.8
2018-09-26T10:14:42.615Z,70.2
2018-09-26T10:15:33.342Z,69.3
2018-09-26T10:16:23.004Z,67.9
2018-09-26T10:17:12.801Z,67
2018-09-26T10:18:02.865Z,67
2018-09-26T10:18:52.679Z,67.9
2018-09-26T10:19:42.992Z,69.1
2018-09-26T10:20:33.067Z,70.1
2018-09-26T10:21:23.179Z,69.6
2018-09-26T10:22:13.491Z,68.1
2018-09-26T10:23:02.950Z,67.4
2018-09-26T10:23:53.592Z,67.8
2018-09-26T10:24:43.647Z,67.3
2018-09-26T10:25:33.698Z,66.7
2018-09-26T10:26:24.640Z,66.8
2018-09-26T10:27:13.821Z,65.9
2018-09-26T10:28:03.877Z,64.5
2018-09-26T10:28:53.949Z,63.1
2018-09-26T10:29:44.058Z,61.8
2018-09-26T10:30:33.566Z,60.8
2018-09-26T10:31:24.155Z,59.8
2018-09-26T10:32:14.522Z,58.8
2018-09-26T10:33:04.266Z,58
2018-09-26T10:33:54.326Z,57.1
2018-09-26T10:34:44.229Z,56.3
2018-09-26T10:35:34.445Z,55.6
2018-09-26T10:36:24.541Z,54.9
2018-09-26T10:37:14.659Z,54.2
2018-09-26T10:38:04.653Z,53.5
2018-09-26T10:38:54.921Z,52.9
2018-09-26T10:39:44.513Z,52.3
2018-09-26T10:40:34.553Z,51.6
2018-09-26T10:41:24.633Z,51.1
2018-09-26T10:42:14.937Z,50.5
2018-09-26T10:43:04.433Z,49.9
2018-09-26T10:43:55.078Z,49.4
2018-09-26T10:44:45.110Z,48.8
2018-09-26T10:45:34.885Z,48.4
2018-09-26T10:46:25.285Z,47.9
2018-09-26T10:47:14.723Z,47.4
2018-09-26T10:48:05.350Z,49.6
2018-09-26T10:48:55.415Z,53.6
2018-09-26T10:49:45.173Z,62.9
2018-09-26T10:50:35.533Z,65.1
2018-09-26T10:51:25.583Z,63.6
2018-09-26T10:52:15.645Z,62.1
2018-09-26T10:53:05.013Z,61.2
2018-09-26T10:53:55.767Z,60.6
2018-09-26T10:54:45.833Z,60
2018-09-26T10:55:36.150Z,59.3
2018-09-26T10:56:25.877Z,58.4
2018-09-26T10:57:15.469Z,57.6
2018-09-26T10:58:06.055Z,56.8
2018-09-26T10:58:55.857Z,56
2018-09-26T10:59:45.901Z,55.4
2018-09-26T11:00:36.499Z,55.4
2018-09-26T11:01:26.337Z,60.9
2018-09-26T11:02:17.161Z,66.8
2018-09-26T11:03:05.602Z,66.9
2018-09-26T11:03:55.939Z,65.4
2018-09-26T11:04:46.579Z,62.9
2018-09-26T11:05:36.659Z,61.3
2018-09-26T11:06:26.704Z,60.5
2018-09-26T11:07:15.909Z,59.9
2018-09-26T11:08:07.085Z,59.4
2018-09-26T11:08:56.567Z,58.6
2018-09-26T11:09:46.948Z,57.9
2018-09-26T11:10:37.032Z,57
2018-09-26T11:11:26.779Z,56.3
2018-09-26T11:12:17.103Z,55.6
2018-09-26T11:13:07.506Z,54.8
2018-09-26T11:13:56.126Z,54.1
2018-09-26T11:14:46.737Z,53.4
2018-09-26T11:15:37.141Z,52.8
2018-09-26T11:16:27.646Z,52.1
2018-09-26T11:17:17.486Z,51.6
2018-09-26T11:18:07.594Z,51
2018-09-26T11:18:57.866Z,50.4
2018-09-26T11:19:47.656Z,49.8
2018-09-26T11:20:37.978Z,49.3
2018-09-26T11:21:27.141Z,48.8
2018-09-26T11:22:18.487Z,48.3
2018-09-26T11:23:07.922Z,47.8
2018-09-26T11:23:57.950Z,47.3
2018-09-26T11:24:47.758Z,46.8
2018-09-26T11:25:38.083Z,46.3
2018-09-26T11:26:28.774Z,45.9
2018-09-26T11:27:18.249Z,45.4
2018-09-26T11:28:08.222Z,45.1
2018-09-26T11:28:58.068Z,44.6
2018-09-26T11:29:48.125Z,44.3
2018-09-26T11:30:38.194Z,43.9
2018-09-26T11:31:28.570Z,43.5
2018-09-26T11:32:19.199Z,43.2
2018-09-26T11:33:08.452Z,42.8
2018-09-26T11:33:58.992Z,42.5
2018-09-26T11:34:48.518Z,42.1
2018-09-26T11:35:38.300Z,41.8
2018-09-26T11:36:28.640Z,41.5
2018-09-26T11:37:18.675Z,41.2
2018-09-26T11:38:09.422Z,40.9
2018-09-26T11:38:59.090Z,40.6
2018-09-26T11:39:49.140Z,40.3
2018-09-26T11:40:39.194Z,40.1
2018-09-26T11:41:29.240Z,39.8
2018-09-26T11:42:19.091Z,39.5
2018-09-26T11:43:09.134Z,39.3
2018-09-26T11:43:59.518Z,39
2018-09-26T11:44:50.556Z,38.8
2018-09-26T11:45:39.577Z,38.5
2018-09-26T11:46:29.877Z,38.3
2018-09-26T11:47:18.857Z,38
2018-09-26T11:48:08.942Z,37.8
2018-09-26T11:48:59.791Z,37.6
2018-09-26T11:49:49.617Z,37.4
2018-09-26T11:50:39.515Z,37.1
2018-09-26T11:51:29.444Z,36.9
2018-09-26T11:52:19.735Z,36.8
2018-09-26T11:53:10.367Z,36.6
2018-09-26T11:54:00.181Z,36.4
2018-09-26T11:54:49.975Z,36.2
2018-09-26T11:55:39.577Z,36
2018-09-26T11:56:30.738Z,35.8
2018-09-26T11:57:19.670Z,35.6
2018-09-26T11:58:10.418Z,35.5
2018-09-26T11:59:00.314Z,35.3